createdAt,value
2019-05-03T00:02:27.112Z,97897.70
2019-05-03T00:07:33.155Z,97902.01
2019-05-03T00:12:38.471Z,97906.00
2019-05-03T00:17:43.716Z,97908.17
2019-05-03T00:22:50.078Z,97909.98
2019-05-03T00:27:55.433Z,97909.92
2019-05-03T00:33:02.735Z,97921.83
2019-05-03T00:38:09.320Z,97925.26
2019-05-03T00:43:15.468Z,97919.91
2019-05-03T00:48:22.076Z,97936.18
2019-05-03T00:53:27.511Z,97945.66
2019-05-03T00:58:35.797Z,97950.34
2019-05-03T01:03:41.856Z,97944.58
2019-05-03T01:08:48.270Z,97956.50
2019-05-03T01:13:53.962Z,97956.16
2019-05-03T01:18:59.331Z,97956.31
2019-05-03T01:24:04.855Z,97963.67
2019-05-03T01:29:12.187Z,97966.30
2019-05-03T01:34:17.921Z,97976.63
2019-05-03T01:39:23.599Z,97970.23
2019-05-03T01:44:29.479Z,97967.66
2019-05-03T01:49:44.939Z,97970.64
2019-05-03T01:54:52.159Z,97963.09
2019-05-03T01:59:57.437Z,97963.73
2019-05-03T02:05:28.283Z,97960.44
2019-05-03T02:10:33.753Z,97971.72
2019-05-03T02:15:39.600Z,97966.11
2019-05-03T02:20:44.942Z,97971.15
2019-05-03T02:25:56.842Z,97968.49
2019-05-03T02:30:57.846Z,97973.87
2019-05-03T02:36:04.034Z,97978.09
2019-05-03T02:41:09.211Z,97980.81
2019-05-03T02:46:35.868Z,97977.94
2019-05-03T02:51:40.647Z,97983.21
2019-05-03T02:56:46.217Z,97971.86
2019-05-03T03:01:51.792Z,97973.65
2019-05-03T03:06:58.231Z,97978.43
2019-05-03T03:12:06.193Z,97977.17
2019-05-03T03:17:14.925Z,97976.87
2019-05-03T03:22:25.816Z,97977.30
2019-05-03T03:27:32.138Z,97969.52
2019-05-03T03:32:39.097Z,97974.74
2019-05-03T03:37:46.163Z,97979.31
2019-05-03T03:42:55.528Z,97980.77
2019-05-03T03:48:02.059Z,97981.24
2019-05-03T03:53:10.663Z,97985.55
2019-05-03T03:58:22.530Z,97996.78
2019-05-03T04:03:26.012Z,98004.69
2019-05-03T04:08:31.782Z,98002.14
2019-05-03T04:13:40.122Z,98007.14
2019-05-03T04:18:55.096Z,98008.59
2019-05-03T04:24:00.900Z,98016.22
2019-05-03T04:29:06.405Z,98017.71
2019-05-03T04:34:11.738Z,98013.84
2019-05-03T04:39:20.218Z,98020.77
2019-05-03T04:44:25.985Z,98024.33
2019-05-03T04:49:31.470Z,98036.19
2019-05-03T04:54:45.262Z,98043.46
2019-05-03T04:59:50.695Z,98050.92
2019-05-03T05:04:55.946Z,98049.28
2019-05-03T05:10:01.496Z,98052.92
2019-05-03T05:15:07.533Z,98054.84
2019-05-03T05:20:27.303Z,98054.97
2019-05-03T05:25:36.562Z,98058.48
2019-05-03T05:30:41.851Z,98063.61
2019-05-03T05:35:47.184Z,98066.90
2019-05-03T05:40:52.419Z,98081.53
2019-05-03T05:45:58.963Z,98083.66
2019-05-03T05:51:04.536Z,98091.48
2019-05-03T05:56:32.279Z,98091.90
2019-05-03T06:01:52.494Z,98094.63
2019-05-03T06:07:24.732Z,98102.83
2019-05-03T06:12:47.632Z,98110.19
2019-05-03T06:17:57.563Z,98120.34
2019-05-03T06:23:14.456Z,98124.48
2019-05-03T06:28:27.260Z,98125.34
2019-05-03T06:33:34.623Z,98131.97
2019-05-03T06:38:42.200Z,98127.81
2019-05-03T06:43:48.728Z,98133.92
2019-05-03T06:48:54.327Z,98135.30
2019-05-03T06:54:01.139Z,98135.94
2019-05-03T06:59:08.364Z,98138.47
2019-05-03T07:04:24.547Z,98138.00
2019-05-03T07:09:47.362Z,98142.91
2019-05-03T07:14:54.574Z,98149.95
2019-05-03T07:19:59.851Z,98154.42
2019-05-03T07:25:05.553Z,98154.30
2019-05-03T07:30:11.512Z,98156.25
2019-05-03T07:35:16.799Z,98158.52
2019-05-03T07:40:22.022Z,98156.91
2019-05-03T07:45:27.364Z,98155.57
2019-05-03T07:50:33.361Z,98155.81
2019-05-03T07:56:08.035Z,98142.45
2019-05-03T08:01:30.575Z,98143.28
2019-05-03T08:06:35.818Z,98154.80
2019-05-03T08:11:41.501Z,98156.37
2019-05-03T08:16:46.940Z,98163.98
2019-05-03T08:21:52.522Z,98160.56
2019-05-03T08:26:57.855Z,98159.54
2019-05-03T08:32:25.534Z,98156.62
2019-05-03T08:37:49.313Z,98161.09
2019-05-03T08:42:54.986Z,98158.88
2019-05-03T08:48:00.388Z,98162.34
2019-05-03T08:53:06.230Z,98153.66
2019-05-03T08:58:11.500Z,98163.42
2019-05-03T09:03:16.814Z,98148.87
2019-05-03T09:08:22.100Z,98149.45
2019-05-03T09:13:35.354Z,98144.70
2019-05-03T09:18:40.705Z,98134.24
2019-05-03T09:23:46.053Z,98142.38
2019-05-03T09:28:52.858Z,98151.82
2019-05-03T09:33:59.791Z,98145.29
2019-05-03T09:39:07.715Z,98139.48
2019-05-03T09:44:15.076Z,98140.38
2019-05-03T09:49:22.374Z,98144.35
2019-05-03T09:54:36.748Z,98154.44
2019-05-03T09:59:54.261Z,98149.37
2019-05-03T10:04:49.506Z,98150.77
2019-05-03T10:09:55.227Z,98156.46
2019-05-03T10:15:01.033Z,98155.47
2019-05-03T10:20:08.367Z,98156.45
2019-05-03T10:25:14.105Z,98158.20
2019-05-03T10:30:28.440Z,98162.00
2019-05-03T10:35:35.426Z,98162.22
2019-05-03T10:40:40.805Z,98164.48
2019-05-03T10:45:46.191Z,98159.71
2019-05-03T10:50:52.638Z,98151.90
2019-05-03T10:56:22.659Z,98147.31
2019-05-03T11:01:35.903Z,98143.16
2019-05-03T11:06:40.876Z,98139.59
2019-05-03T11:11:46.282Z,98120.59
2019-05-03T11:16:51.585Z,98117.05
2019-05-03T11:21:56.938Z,98119.99
2019-05-03T11:27:05.293Z,98117.66
2019-05-03T11:32:19.291Z,98103.54
2019-05-03T11:37:40.402Z,98103.13
2019-05-03T11:42:46.272Z,98090.65
2019-05-03T11:47:51.948Z,98089.00
2019-05-03T11:52:57.451Z,98090.31
2019-05-03T11:58:06.505Z,98082.91
2019-05-03T12:03:18.685Z,98079.38
2019-05-03T12:08:25.298Z,98068.30
2019-05-03T12:13:32.353Z,98079.55
2019-05-03T12:18:48.913Z,98089.53
2019-05-03T12:23:46.001Z,98091.15
2019-05-03T12:28:51.808Z,98093.65
2019-05-03T12:33:57.194Z,98081.74
2019-05-03T12:39:05.645Z,98081.56
2019-05-03T12:44:11.620Z,98079.13
2019-05-03T12:49:17.738Z,98062.86
2019-05-03T12:54:24.550Z,98055.53
2019-05-03T12:59:45.046Z,98055.88
2019-05-03T13:04:52.113Z,98052.56
2019-05-03T13:09:57.610Z,98056.92
2019-05-03T13:15:04.924Z,98038.18
2019-05-03T13:20:13.242Z,98028.55
2019-05-03T13:25:18.796Z,98030.20
2019-05-03T13:30:25.104Z,98016.39
2019-05-03T13:35:31.582Z,98021.30
2019-05-03T13:40:37.314Z,98039.01
2019-05-03T13:45:44.840Z,98027.01
2019-05-03T13:50:50.142Z,98023.17
2019-05-03T13:55:55.466Z,98003.77
2019-05-03T14:01:00.823Z,98006.88
2019-05-03T14:06:08.432Z,97998.24
2019-05-03T14:11:15.570Z,98002.08
2019-05-03T14:16:20.818Z,97996.04
2019-05-03T14:21:38.238Z,98001.63
2019-05-03T14:26:45.174Z,97992.66
2019-05-03T14:31:50.609Z,97980.86
2019-05-03T14:36:55.998Z,97980.53
2019-05-03T14:42:01.222Z,97989.08
2019-05-03T14:47:06.681Z,97983.34
2019-05-03T14:52:12.140Z,97980.47
2019-05-03T14:57:30.311Z,97973.66
2019-05-03T15:02:58.486Z,97971.52
2019-05-03T15:08:05.557Z,97980.20
2019-05-03T15:13:11.124Z,97978.07
2019-05-03T15:18:16.650Z,97975.41
2019-05-03T15:23:21.977Z,97975.05
2019-05-03T15:28:27.685Z,97981.14
2019-05-03T15:33:35.156Z,97980.75
2019-05-03T15:38:40.356Z,97981.44
2019-05-03T15:44:01.003Z,97983.42
2019-05-03T15:49:06.337Z,97988.77
2019-05-03T15:54:11.614Z,97987.25
2019-05-03T15:59:17.025Z,97985.02
2019-05-03T16:04:22.691Z,97995.48
2019-05-03T16:09:28.111Z,97992.05
2019-05-03T16:14:35.069Z,97998.20
2019-05-03T16:19:40.558Z,97994.80
2019-05-03T16:24:47.107Z,97995.50
2019-05-03T16:29:52.460Z,97993.92
2019-05-03T16:34:57.745Z,97991.16
2019-05-03T16:40:05.199Z,97998.29
2019-05-03T16:45:10.881Z,97989.58
2019-05-03T16:50:17.043Z,97981.34
2019-05-03T16:55:25.162Z,97981.34
2019-05-03T17:00:30.726Z,97982.08
2019-05-03T17:06:01.808Z,97985.98
2019-05-03T17:11:09.607Z,97985.88
2019-05-03T17:16:15.787Z,97999.38
2019-05-03T17:21:21.083Z,97996.91
2019-05-03T17:26:27.372Z,97996.70
2019-05-03T17:31:35.182Z,97990.38
2019-05-03T17:36:40.997Z,97997.11
2019-05-03T17:42:05.620Z,97996.87
2019-05-03T17:47:10.992Z,97998.06
2019-05-03T17:52:35.189Z,98000.06
2019-05-03T17:58:05.621Z,98010.05
2019-05-03T18:03:11.075Z,98001.05
2019-05-03T18:08:44.681Z,98007.34
2019-05-03T18:13:49.983Z,98005.38
2019-05-03T18:22:55.725Z,98009.23
2019-05-03T18:28:01.363Z,98015.83
2019-05-03T18:33:07.055Z,98011.69
2019-05-03T18:38:14.646Z,98019.81
2019-05-03T18:43:45.351Z,98013.21
2019-05-03T18:48:51.188Z,98014.99
2019-05-03T18:53:56.596Z,98014.42
2019-05-03T18:59:04.960Z,98012.80
2019-05-03T19:04:15.266Z,98017.25
2019-05-03T19:09:39.574Z,98021.02
2019-05-03T19:14:45.388Z,98021.52
2019-05-03T19:19:52.608Z,98006.93
2019-05-03T19:25:07.430Z,98007.50
2019-05-03T19:30:14.935Z,98018.56
2019-05-03T19:37:18.833Z,98020.83
2019-05-03T19:42:24.860Z,98017.99
2019-05-03T19:47:31.419Z,98024.30
2019-05-03T19:52:57.328Z,98022.17
2019-05-03T19:58:05.255Z,98019.94
2019-05-03T20:03:15.835Z,98016.58
2019-05-03T20:08:31.183Z,98009.34
2019-05-03T20:13:37.412Z,98007.86
2019-05-03T20:18:45.450Z,98001.55
2019-05-03T20:23:50.532Z,98001.42
2019-05-03T20:28:56.330Z,98004.69
2019-05-03T20:34:01.629Z,98001.48
2019-05-03T20:39:07.625Z,98002.39
2019-05-03T20:44:29.739Z,97997.20
2019-05-03T20:49:35.542Z,97995.52
2019-05-03T20:54:41.207Z,97991.44
2019-05-03T20:59:50.352Z,97995.63
2019-05-03T21:04:55.573Z,97992.30
2019-05-03T21:10:00.928Z,97996.53
2019-05-03T21:15:09.250Z,97988.63
2019-05-03T21:20:34.807Z,97988.13
2019-05-03T21:26:05.583Z,97985.31
2019-05-03T21:30:54.903Z,97980.73
2019-05-03T21:36:01.859Z,97972.59
2019-05-03T21:41:07.682Z,97967.66
2019-05-03T21:46:19.422Z,97965.40
2019-05-03T21:51:26.721Z,97967.44
2019-05-03T21:56:32.240Z,97972.80
2019-05-03T22:01:41.329Z,97974.17
2019-05-03T22:06:50.199Z,97961.66
2019-05-03T22:11:56.043Z,97955.83
2019-05-03T22:17:22.973Z,97940.73
2019-05-03T22:22:38.126Z,97934.20
2019-05-03T22:27:45.549Z,97918.87
2019-05-03T22:32:51.050Z,97899.83
2019-05-03T22:37:56.274Z,97904.80
2019-05-03T22:43:01.706Z,97898.77
2019-05-03T22:48:07.621Z,97879.38
2019-05-03T22:53:14.783Z,97884.20
2019-05-03T22:58:21.737Z,97877.16
2019-05-03T23:03:28.606Z,97872.47
2019-05-03T23:08:34.590Z,97870.91
2019-05-03T23:13:40.210Z,97857.58
2019-05-03T23:18:45.578Z,97849.33
2019-05-03T23:23:54.975Z,97840.52
2019-05-03T23:29:00.813Z,97835.69
2019-05-03T23:34:06.407Z,97828.34
2019-05-03T23:39:11.745Z,97819.73
2019-05-03T23:44:17.034Z,97823.22
2019-05-03T23:49:24.895Z,97809.73
2019-05-03T23:54:30.042Z,97805.74
2019-05-03T23:59:35.417Z,97797.84
